sensor_id;sensor_type;location;lat;lon;timestamp;pressure;altitude;pressure_sealevel;temperature;humidity
57904;BME280;43720;47.462;19.030;2023-02-28T04:57:20;101469.03;;;2.66;49.41
57904;BME280;43720;47.462;19.030;2023-02-28T05:00:23;101469.94;;;2.66;49.46
57904;BME280;43720;47.462;19.030;2023-02-28T05:03:25;101468.31;;;2.82;49.37
57904;BME280;43720;47.462;19.030;2023-02-28T05:06:31;101464.00;;;2.67;49.50
57904;BME280;43720;47.462;19.030;2023-02-28T05:09:34;101469.94;;;2.80;49.36
57904;BME280;43720;47.462;19.030;2023-02-28T05:12:36;101466.16;;;2.75;49.72
57904;BME280;43720;47.462;19.030;2023-02-28T05:15:39;101468.66;;;2.73;50.48
57904;BME280;43720;47.462;19.030;2023-02-28T05:18:41;101472.22;;;2.75;49.73
57904;BME280;43720;47.462;19.030;2023-02-28T05:21:54;101471.72;;;2.81;50.42
57904;BME280;43720;47.462;19.030;2023-02-28T05:24:56;101470.41;;;2.74;50.67
57904;BME280;43720;47.462;19.030;2023-02-28T05:27:59;101477.00;;;2.69;51.11
57904;BME280;43720;47.462;19.030;2023-02-28T05:31:01;101473.81;;;2.73;51.16
57904;BME280;43720;47.462;19.030;2023-02-28T05:34:03;101481.16;;;2.80;50.34
57904;BME280;43720;47.462;19.030;2023-02-28T05:37:11;101481.63;;;2.88;49.50
57904;BME280;43720;47.462;19.030;2023-02-28T05:40:14;101485.69;;;2.98;48.84
57904;BME280;43720;47.462;19.030;2023-02-28T05:43:17;101486.88;;;2.89;49.62
57904;BME280;43720;47.462;19.030;2023-02-28T05:46:19;101486.00;;;2.89;51.01
57904;BME280;43720;47.462;19.030;2023-02-28T05:49:22;101483.22;;;2.86;52.23
57904;BME280;43720;47.462;19.030;2023-02-28T05:52:24;101493.75;;;3.02;53.27
57904;BME280;43720;47.462;19.030;2023-02-28T05:55:26;101499.28;;;3.08;52.14
57904;BME280;43720;47.462;19.030;2023-02-28T05:58:29;101495.59;;;3.05;52.61
57904;BME280;43720;47.462;19.030;2023-02-28T06:01:36;101507.22;;;2.98;53.54
57904;BME280;43720;47.462;19.030;2023-02-28T06:04:39;101502.66;;;3.07;52.75
57904;BME280;43720;47.462;19.030;2023-02-28T06:07:43;101497.44;;;3.21;52.08
57904;BME280;43720;47.462;19.030;2023-02-28T06:10:46;101505.06;;;3.32;51.80
57904;BME280;43720;47.462;19.030;2023-02-28T06:13:48;101503.00;;;3.27;52.64
57904;BME280;43720;47.462;19.030;2023-02-28T06:16:50;101501.84;;;3.36;53.27
57904;BME280;43720;47.462;19.030;2023-02-28T06:19:54;101506.38;;;3.26;51.15
57904;BME280;43720;47.462;19.030;2023-02-28T06:22:57;101508.50;;;3.18;50.90
57904;BME280;43720;47.462;19.030;2023-02-28T06:26:00;101511.84;;;3.17;50.75
57904;BME280;43720;47.462;19.030;2023-02-28T06:29:03;101507.09;;;3.23;50.44
57904;BME280;43720;47.462;19.030;2023-02-28T06:32:05;101515.03;;;3.54;50.54
57904;BME280;43720;47.462;19.030;2023-02-28T06:35:08;101517.75;;;3.42;49.42
57904;BME280;43720;47.462;19.030;2023-02-28T06:38:11;101521.31;;;3.44;49.95
57904;BME280;43720;47.462;19.030;2023-02-28T06:41:13;101528.75;;;3.53;49.68
57904;BME280;43720;47.462;19.030;2023-02-28T06:44:16;101523.12;;;3.46;50.15
57904;BME280;43720;47.462;19.030;2023-02-28T06:47:19;101525.19;;;3.51;50.07
57904;BME280;43720;47.462;19.030;2023-02-28T06:50:21;101527.88;;;3.67;49.85
57904;BME280;43720;47.462;19.030;2023-02-28T06:53:24;101531.63;;;3.58;49.79
57904;BME280;43720;47.462;19.030;2023-02-28T06:56:26;101531.16;;;3.50;50.29
57904;BME280;43720;47.462;19.030;2023-02-28T06:59:29;101527.25;;;3.57;51.00
57904;BME280;43720;47.462;19.030;2023-02-28T07:02:31;101524.38;;;3.52;49.86
57904;BME280;43720;47.462;19.030;2023-02-28T07:05:38;101524.78;;;3.73;50.18
57904;BME280;43720;47.462;19.030;2023-02-28T07:08:40;101528.66;;;3.80;49.08
57904;BME280;43720;47.462;19.030;2023-02-28T07:11:43;101532.84;;;3.92;48.79
57904;BME280;43720;47.462;19.030;2023-02-28T07:14:45;101535.94;;;3.87;48.39
57904;BME280;43720;47.462;19.030;2023-02-28T07:17:48;101542.50;;;3.95;48.43
57904;BME280;43720;47.462;19.030;2023-02-28T07:20:50;101544.28;;;3.96;49.23
57904;BME280;43720;47.462;19.030;2023-02-28T07:23:52;101543.00;;;3.89;48.80
57904;BME280;43720;47.462;19.030;2023-02-28T07:26:55;101541.28;;;3.75;48.94
57904;BME280;43720;47.462;19.030;2023-02-28T07:29:57;101546.41;;;3.88;49.20
57904;BME280;43720;47.462;19.030;2023-02-28T07:33:03;101538.69;;;3.75;49.31
57904;BME280;43720;47.462;19.030;2023-02-28T07:36:09;101547.53;;;3.79;48.64
57904;BME280;43720;47.462;19.030;2023-02-28T07:39:15;101557.38;;;3.84;49.64
57904;BME280;43720;47.462;19.030;2023-02-28T07:42:18;101560.50;;;3.93;49.53
57904;BME280;43720;47.462;19.030;2023-02-28T07:45:20;101562.22;;;4.08;49.62
57904;BME280;43720;47.462;19.030;2023-02-28T07:48:22;101557.09;;;3.95;48.33
57904;BME280;43720;47.462;19.030;2023-02-28T07:51:25;101554.34;;;3.91;48.77
57904;BME280;43720;47.462;19.030;2023-02-28T07:54:27;101557.44;;;3.86;48.77
57904;BME280;43720;47.462;19.030;2023-02-28T07:57:29;101559.53;;;3.91;49.60
57904;BME280;43720;47.462;19.030;2023-02-28T08:00:36;101560.62;;;3.95;47.87
57904;BME280;43720;47.462;19.030;2023-02-28T08:03:39;101558.91;;;3.96;47.75
57904;BME280;43720;47.462;19.030;2023-02-28T08:06:41;101557.03;;;3.93;47.28
57904;BME280;43720;47.462;19.030;2023-02-28T08:09:44;101555.09;;;4.19;48.96
57904;BME280;43720;47.462;19.030;2023-02-28T08:12:46;101556.69;;;4.16;47.73
57904;BME280;43720;47.462;19.030;2023-02-28T08:15:49;101553.03;;;4.13;45.99
57904;BME280;43720;47.462;19.030;2023-02-28T08:18:51;101552.16;;;4.27;47.62
57904;BME280;43720;47.462;19.030;2023-02-28T08:21:55;101555.53;;;4.41;48.01
57904;BME280;43720;47.462;19.030;2023-02-28T08:24:58;101547.91;;;4.88;45.35
57904;BME280;43720;47.462;19.030;2023-02-28T08:28:00;101549.91;;;5.09;44.05
57904;BME280;43720;47.462;19.030;2023-02-28T08:31:07;101549.06;;;4.94;44.72
57904;BME280;43720;47.462;19.030;2023-02-28T08:34:13;101545.66;;;4.80;44.38
57904;BME280;43720;47.462;19.030;2023-02-28T08:37:15;101546.38;;;5.23;44.52
57904;BME280;43720;47.462;19.030;2023-02-28T08:40:17;101551.81;;;5.28;43.83
57904;BME280;43720;47.462;19.030;2023-02-28T08:43:19;101550.56;;;5.21;45.97
57904;BME280;43720;47.462;19.030;2023-02-28T08:46:22;101540.72;;;5.47;44.44
57904;BME280;43720;47.462;19.030;2023-02-28T08:49:25;101548.44;;;5.61;43.70
57904;BME280;43720;47.462;19.030;2023-02-28T08:52:27;101547.75;;;5.49;43.24
57904;BME280;43720;47.462;19.030;2023-02-28T08:55:29;101546.50;;;5.74;43.29
57904;BME280;43720;47.462;19.030;2023-02-28T08:58:32;101537.97;;;5.60;42.68
57904;BME280;43720;47.462;19.030;2023-02-28T09:01:34;101535.91;;;5.38;43.02
57904;BME280;43720;47.462;19.030;2023-02-28T09:04:38;101536.66;;;5.52;43.30
57904;BME280;43720;47.462;19.030;2023-02-28T09:07:40;101539.91;;;5.48;43.31
57904;BME280;43720;47.462;19.030;2023-02-28T09:10:43;101540.72;;;5.63;45.17
57904;BME280;43720;47.462;19.030;2023-02-28T09:13:45;101543.06;;;5.75;44.62
57904;BME280;43720;47.462;19.030;2023-02-28T09:16:49;101548.19;;;5.57;43.93
57904;BME280;43720;47.462;19.030;2023-02-28T09:19:54;101539.84;;;5.62;44.56
57904;BME280;43720;47.462;19.030;2023-02-28T09:22:57;101541.69;;;5.65;44.44
57904;BME280;43720;47.462;19.030;2023-02-28T09:26:02;101545.28;;;5.51;43.42
57904;BME280;43720;47.462;19.030;2023-02-28T09:29:04;101550.56;;;5.21;43.79
57904;BME280;43720;47.462;19.030;2023-02-28T09:32:06;101551.84;;;5.13;44.04
57904;BME280;43720;47.462;19.030;2023-02-28T09:35:09;101542.69;;;5.51;44.84
57904;BME280;43720;47.462;19.030;2023-02-28T09:38:16;101546.75;;;5.62;44.96
57904;BME280;43720;47.462;19.030;2023-02-28T09:41:32;101550.12;;;6.10;43.01
57904;BME280;43720;47.462;19.030;2023-02-28T09:44:42;101541.63;;;6.12;42.62
57904;BME280;43720;47.462;19.030;2023-02-28T09:47:47;101543.31;;;6.12;42.76
57904;BME280;43720;47.462;19.030;2023-02-28T09:50:53;101548.84;;;6.02;43.02
57904;BME280;43720;47.462;19.030;2023-02-28T09:53:58;101546.50;;;6.41;43.29
57904;BME280;43720;47.462;19.030;2023-02-28T09:57:13;101545.87;;;6.46;42.17
57904;BME280;43720;47.462;19.030;2023-02-28T10:00:30;101548.75;;;6.34;42.15
57904;BME280;43720;47.462;19.030;2023-02-28T10:03:47;101539.03;;;6.82;41.37
57904;BME280;43720;47.462;19.030;2023-02-28T10:06:53;101538.72;;;6.76;41.95
57904;BME280;43720;47.462;19.030;2023-02-28T10:09:59;101527.22;;;6.71;41.88
57904;BME280;43720;47.462;19.030;2023-02-28T10:13:26;101535.59;;;6.66;41.99
57904;BME280;43720;47.462;19.030;2023-02-28T10:16:41;101528.59;;;7.00;42.63
57904;BME280;43720;47.462;19.030;2023-02-28T10:20:02;101532.06;;;6.81;42.14
57904;BME280;43720;47.462;19.030;2023-02-28T10:23:26;101530.25;;;6.80;41.47
57904;BME280;43720;47.462;19.030;2023-02-28T10:26:32;101523.59;;;6.85;42.25
57904;BME280;43720;47.462;19.030;2023-02-28T10:29:35;101522.59;;;6.83;41.99
57904;BME280;43720;47.462;19.030;2023-02-28T10:32:49;101524.09;;;6.78;42.29
57904;BME280;43720;47.462;19.030;2023-02-28T10:35:53;101517.28;;;6.62;42.13
57904;BME280;43720;47.462;19.030;2023-02-28T10:38:55;101520.97;;;6.50;43.37
57904;BME280;43720;47.462;19.030;2023-02-28T10:41:58;101519.19;;;6.49;43.69
57904;BME280;43720;47.462;19.030;2023-02-28T10:45:16;101506.34;;;6.70;42.19
57904;BME280;43720;47.462;19.030;2023-02-28T10:51:22;101503.03;;;7.09;43.30
57904;BME280;43720;47.462;19.030;2023-02-28T10:54:36;101501.75;;;7.19;42.53
57904;BME280;43720;47.462;19.030;2023-02-28T10:57:39;101506.22;;;7.04;41.44
57904;BME280;43720;47.462;19.030;2023-02-28T11:00:42;101507.38;;;6.73;41.78
57904;BME280;43720;47.462;19.030;2023-02-28T11:03:44;101501.53;;;6.59;41.90
57904;BME280;43720;47.462;19.030;2023-02-28T11:06:56;101495.50;;;6.78;42.02
57904;BME280;43720;47.462;19.030;2023-02-28T11:09:59;101495.31;;;7.11;42.52
57904;BME280;43720;47.462;19.030;2023-02-28T11:13:02;101502.03;;;7.25;42.14
57904;BME280;43720;47.462;19.030;2023-02-28T11:16:08;101494.31;;;7.66;42.18
57904;BME280;43720;47.462;19.030;2023-02-28T11:19:25;101493.06;;;7.77;42.47
57904;BME280;43720;47.462;19.030;2023-02-28T11:22:32;101486.97;;;7.76;40.09
57904;BME280;43720;47.462;19.030;2023-02-28T11:25:37;101484.94;;;7.50;41.02
57904;BME280;43720;47.462;19.030;2023-02-28T11:28:41;101489.03;;;7.25;42.17
57904;BME280;43720;47.462;19.030;2023-02-28T11:35:10;101490.09;;;7.11;42.62
57904;BME280;43720;47.462;19.030;2023-02-28T11:38:15;101491.78;;;7.28;43.01
57904;BME280;43720;47.462;19.030;2023-02-28T11:51:15;101479.12;;;7.36;41.88
57904;BME280;43720;47.462;19.030;2023-02-28T11:58:04;101469.97;;;7.84;41.02
57904;BME280;43720;47.462;19.030;2023-02-28T12:01:19;101466.63;;;8.08;42.29
57904;BME280;43720;47.462;19.030;2023-02-28T12:08:26;101456.16;;;8.06;41.97
57904;BME280;43720;47.462;19.030;2023-02-28T12:11:56;101447.22;;;7.80;41.63
57904;BME280;43720;47.462;19.030;2023-02-28T12:15:26;101451.25;;;8.35;42.46
57904;BME280;43720;47.462;19.030;2023-02-28T12:22:27;101443.25;;;8.51;40.13
57904;BME280;43720;47.462;19.030;2023-02-28T12:26:53;101444.84;;;8.06;40.79
57904;BME280;43720;47.462;19.030;2023-02-28T12:29:46;101433.41;;;8.02;41.81
57904;BME280;43720;47.462;19.030;2023-02-28T12:32:58;101434.22;;;8.22;41.12
57904;BME280;43720;47.462;19.030;2023-02-28T12:36:09;101439.06;;;8.13;42.50
57904;BME280;43720;47.462;19.030;2023-02-28T12:39:20;101426.19;;;8.37;41.92
57904;BME280;43720;47.462;19.030;2023-02-28T12:42:39;101421.88;;;8.38;41.14
57904;BME280;43720;47.462;19.030;2023-02-28T12:45:54;101420.50;;;8.26;41.25
57904;BME280;43720;47.462;19.030;2023-02-28T12:49:06;101422.44;;;8.32;41.92
57904;BME280;43720;47.462;19.030;2023-02-28T12:52:11;101418.91;;;7.88;42.51
57904;BME280;43720;47.462;19.030;2023-02-28T12:55:23;101418.34;;;7.95;42.48
57904;BME280;43720;47.462;19.030;2023-02-28T12:58:39;101420.69;;;8.31;42.23
57904;BME280;43720;47.462;19.030;2023-02-28T13:05:37;101405.75;;;8.48;41.86
57904;BME280;43720;47.462;19.030;2023-02-28T13:08:59;101413.50;;;8.46;41.84
57904;BME280;43720;47.462;19.030;2023-02-28T13:12:12;101402.78;;;8.39;43.16
57904;BME280;43720;47.462;19.030;2023-02-28T13:15:22;101396.88;;;8.65;42.35
57904;BME280;43720;47.462;19.030;2023-02-28T13:18:33;101402.63;;;8.56;41.65
57904;BME280;43720;47.462;19.030;2023-02-28T13:21:43;101404.16;;;8.74;41.13
57904;BME280;43720;47.462;19.030;2023-02-28T13:24:49;101392.97;;;8.54;41.94
57904;BME280;43720;47.462;19.030;2023-02-28T13:27:55;101393.88;;;8.33;41.73
57904;BME280;43720;47.462;19.030;2023-02-28T13:31:04;101398.72;;;8.03;42.63
57904;BME280;43720;47.462;19.030;2023-02-28T13:34:15;101394.59;;;7.88;43.48
57904;BME280;43720;47.462;19.030;2023-02-28T13:40:27;101389.63;;;8.15;43.77
57904;BME280;43720;47.462;19.030;2023-02-28T13:47:20;101390.41;;;8.12;43.54
57904;BME280;43720;47.462;19.030;2023-02-28T13:50:34;101378.34;;;7.93;44.11
57904;BME280;43720;47.462;19.030;2023-02-28T13:53:54;101381.50;;;8.07;43.93
57904;BME280;43720;47.462;19.030;2023-02-28T14:00:37;101371.69;;;7.79;44.67
57904;BME280;43720;47.462;19.030;2023-02-28T14:07:27;101363.47;;;8.12;46.22
57904;BME280;43720;47.462;19.030;2023-02-28T14:10:46;101366.44;;;8.21;43.75
57904;BME280;43720;47.462;19.030;2023-02-28T14:13:49;101365.09;;;8.30;43.83
57904;BME280;43720;47.462;19.030;2023-02-28T14:16:52;101361.22;;;8.21;43.93
57904;BME280;43720;47.462;19.030;2023-02-28T14:19:54;101367.00;;;8.34;44.85
57904;BME280;43720;47.462;19.030;2023-02-28T14:36:12;101353.44;;;8.00;44.65
57904;BME280;43720;47.462;19.030;2023-02-28T14:39:19;101349.59;;;7.69;44.69
57904;BME280;43720;47.462;19.030;2023-02-28T14:45:33;101349.13;;;8.00;44.07
57904;BME280;43720;47.462;19.030;2023-02-28T14:48:38;101351.22;;;7.88;44.44
57904;BME280;43720;47.462;19.030;2023-02-28T14:51:40;101354.81;;;7.90;44.34
57904;BME280;43720;47.462;19.030;2023-02-28T14:54:43;101349.84;;;7.75;44.82
57904;BME280;43720;47.462;19.030;2023-02-28T15:00:59;101354.66;;;7.87;45.37
57904;BME280;43720;47.462;19.030;2023-02-28T15:04:05;101355.69;;;7.91;46.36
57904;BME280;43720;47.462;19.030;2023-02-28T15:07:10;101358.59;;;7.77;46.03
57904;BME280;43720;47.462;19.030;2023-02-28T15:10:38;101353.38;;;7.77;45.36
57904;BME280;43720;47.462;19.030;2023-02-28T15:13:47;101368.19;;;7.78;45.04
57904;BME280;43720;47.462;19.030;2023-02-28T15:16:59;101360.19;;;7.74;45.27
57904;BME280;43720;47.462;19.030;2023-02-28T15:20:04;101363.66;;;7.74;45.67
57904;BME280;43720;47.462;19.030;2023-02-28T15:23:06;101366.88;;;7.67;46.42
57904;BME280;43720;47.462;19.030;2023-02-28T15:26:15;101366.97;;;7.70;45.45
57904;BME280;43720;47.462;19.030;2023-02-28T15:29:21;101362.25;;;7.41;46.07
57904;BME280;43720;47.462;19.030;2023-02-28T15:32:30;101366.50;;;7.39;46.16
57904;BME280;43720;47.462;19.030;2023-02-28T15:35:32;101355.94;;;7.35;46.66
57904;BME280;43720;47.462;19.030;2023-02-28T15:38:36;101358.28;;;7.49;47.70
57904;BME280;43720;47.462;19.030;2023-02-28T15:41:38;101353.81;;;7.46;47.21
57904;BME280;43720;47.462;19.030;2023-02-28T15:44:40;101360.53;;;7.41;48.41
57904;BME280;43720;47.462;19.030;2023-02-28T15:47:45;101362.53;;;7.27;49.96
57904;BME280;43720;47.462;19.030;2023-02-28T15:50:54;101357.97;;;7.22;49.89
57904;BME280;43720;47.462;19.030;2023-02-28T15:54:01;101357.12;;;7.23;49.42
57904;BME280;43720;47.462;19.030;2023-02-28T15:57:05;101357.44;;;7.09;49.28
57904;BME280;43720;47.462;19.030;2023-02-28T16:00:13;101357.00;;;7.00;50.27
57904;BME280;43720;47.462;19.030;2023-02-28T16:03:35;101353.62;;;6.82;49.88
57904;BME280;43720;47.462;19.030;2023-02-28T16:06:45;101365.06;;;6.68;50.47
57904;BME280;43720;47.462;19.030;2023-02-28T16:09:48;101359.47;;;6.58;50.96
57904;BME280;43720;47.462;19.030;2023-02-28T16:12:50;101371.16;;;6.68;51.39
57904;BME280;43720;47.462;19.030;2023-02-28T16:15:52;101371.50;;;6.76;51.14
